createdAt,value
2019-04-14T00:02:27.291Z,35.87
2019-04-14T00:05:03.890Z,38.40
2019-04-14T00:07:38.463Z,42.13
2019-04-14T00:10:15.980Z,36.00
2019-04-14T00:12:49.853Z,37.13
2019-04-14T00:15:31.048Z,36.90
2019-04-14T00:17:59.052Z,32.53
2019-04-14T00:20:33.680Z,35.60
2019-04-14T00:23:08.671Z,32.90
2019-04-14T00:25:43.395Z,32.53
2019-04-14T00:28:17.135Z,33.17
2019-04-14T00:30:51.232Z,34.30
2019-04-14T00:33:28.027Z,28.20
2019-04-14T00:36:06.632Z,29.93
2019-04-14T00:38:41.896Z,33.53
2019-04-14T00:41:43.626Z,27.60
2019-04-14T00:44:15.240Z,34.50
2019-04-14T00:46:51.474Z,34.70
2019-04-14T00:49:26.588Z,31.57
2019-04-14T00:52:01.504Z,28.53
2019-04-14T00:54:35.343Z,31.73
2019-04-14T00:57:09.445Z,32.57
2019-04-14T00:59:44.061Z,33.17
2019-04-14T01:02:18.827Z,31.37
2019-04-14T01:04:53.405Z,32.00
2019-04-14T01:07:28.281Z,32.87
2019-04-14T01:10:02.047Z,32.47
2019-04-14T01:12:36.626Z,29.50
2019-04-14T01:15:11.512Z,32.17
2019-04-14T01:17:46.077Z,29.03
2019-04-14T01:20:21.095Z,30.77
2019-04-14T01:22:55.290Z,32.87
2019-04-14T01:25:28.919Z,29.27
2019-04-14T01:28:02.577Z,31.27
2019-04-14T01:30:37.220Z,33.77
2019-04-14T01:33:11.887Z,33.60
2019-04-14T01:35:46.668Z,31.37
2019-04-14T01:38:21.183Z,31.93
2019-04-14T01:40:55.307Z,34.10
2019-04-14T01:43:29.965Z,31.33
2019-04-14T01:46:11.615Z,29.60
2019-04-14T01:48:39.215Z,29.53
2019-04-14T01:51:17.785Z,29.57
2019-04-14T01:53:56.007Z,28.43
2019-04-14T01:56:38.412Z,33.47
2019-04-14T01:59:13.753Z,34.07
2019-04-14T02:01:49.924Z,29.50
2019-04-14T02:04:24.564Z,32.20
2019-04-14T02:06:59.499Z,32.07
2019-04-14T02:09:33.582Z,29.03
2019-04-14T02:12:08.470Z,31.83
2019-04-14T02:14:43.045Z,31.03
2019-04-14T02:17:17.771Z,31.77
2019-04-14T02:19:52.414Z,27.63
2019-04-14T02:22:26.668Z,28.47
2019-04-14T02:25:01.382Z,30.20
2019-04-14T02:27:36.061Z,28.07
2019-04-14T02:30:15.187Z,29.33
2019-04-14T02:33:15.515Z,32.53
2019-04-14T02:35:55.317Z,24.83
2019-04-14T02:38:36.085Z,30.63
2019-04-14T02:43:54.453Z,28.43
2019-04-14T02:46:07.668Z,28.67
2019-04-14T02:51:21.126Z,35.73
2019-04-14T02:53:59.411Z,27.27
2019-04-14T02:56:43.440Z,29.77
2019-04-14T02:59:03.696Z,28.50
2019-04-14T03:04:19.619Z,28.67
2019-04-14T03:06:58.196Z,28.20
2019-04-14T03:12:03.703Z,26.73
2019-04-14T03:14:40.195Z,30.23
2019-04-14T03:25:26.349Z,27.67
2019-04-14T03:28:37.882Z,27.10
2019-04-14T03:31:25.414Z,29.63
2019-04-14T03:34:11.229Z,28.93
2019-04-14T03:36:44.689Z,29.03
2019-04-14T03:38:54.964Z,31.00
2019-04-14T03:43:59.576Z,29.80
2019-04-14T03:46:41.464Z,36.20
2019-04-14T03:49:13.890Z,32.10
2019-04-14T03:51:57.860Z,32.87
2019-04-14T03:54:15.961Z,35.60
2019-04-14T03:56:49.009Z,34.23
2019-04-14T03:59:24.075Z,34.53
2019-04-14T04:01:58.585Z,37.43
2019-04-14T04:04:33.663Z,35.63
2019-04-14T04:07:08.213Z,35.10
2019-04-14T04:09:46.145Z,34.87
2019-04-14T04:12:20.365Z,36.17
2019-04-14T04:14:55.211Z,36.50
2019-04-14T04:17:34.148Z,36.60
2019-04-14T04:20:21.936Z,37.77
2019-04-14T04:23:12.606Z,34.50
2019-04-14T04:25:48.669Z,35.17
2019-04-14T04:28:40.580Z,36.57
2019-04-14T04:31:16.025Z,35.37
2019-04-14T04:33:57.067Z,37.83
2019-04-14T04:36:38.295Z,39.20
2019-04-14T04:39:25.881Z,37.03
2019-04-14T04:42:00.427Z,40.63
2019-04-14T04:44:34.183Z,41.37
2019-04-14T04:47:07.836Z,38.37
2019-04-14T04:49:42.608Z,38.07
2019-04-14T04:52:17.279Z,36.27
2019-04-14T04:54:51.652Z,38.17
2019-04-14T04:57:26.396Z,38.97
2019-04-14T05:00:00.597Z,37.20
2019-04-14T05:02:35.292Z,37.20
2019-04-14T05:05:45.091Z,37.93
2019-04-14T05:08:19.566Z,38.27
2019-04-14T05:10:54.812Z,41.60
2019-04-14T05:13:29.574Z,41.60
2019-04-14T05:16:04.205Z,42.60
2019-04-14T05:18:37.994Z,37.67
2019-04-14T05:21:12.635Z,42.47
2019-04-14T05:23:47.362Z,39.33
2019-04-14T05:26:22.081Z,35.80
2019-04-14T05:28:56.922Z,39.30
2019-04-14T05:31:31.781Z,40.50
2019-04-14T05:34:06.515Z,39.60
2019-04-14T05:36:41.126Z,35.17
2019-04-14T05:39:15.671Z,35.93
2019-04-14T05:42:00.554Z,33.93
2019-04-14T05:44:25.389Z,35.60
2019-04-14T05:47:00.062Z,33.20
2019-04-14T05:49:39.083Z,34.37
2019-04-14T05:52:09.906Z,30.80
2019-04-14T05:54:44.664Z,32.50
2019-04-14T05:57:19.759Z,30.20
2019-04-14T05:59:54.755Z,27.47
2019-04-14T06:02:30.443Z,30.13
2019-04-14T06:05:04.356Z,28.27
2019-04-14T06:07:38.098Z,30.03
2019-04-14T06:10:11.984Z,33.10
2019-04-14T06:12:45.724Z,34.07
2019-04-14T06:15:19.493Z,29.63
2019-04-14T06:17:53.142Z,29.73
2019-04-14T06:20:26.776Z,26.93
2019-04-14T06:23:00.507Z,26.60
2019-04-14T06:25:36.383Z,26.53
2019-04-14T06:28:09.606Z,27.23
2019-04-14T06:30:47.720Z,25.37
2019-04-14T06:33:23.028Z,23.97
2019-04-14T06:36:07.405Z,26.23
2019-04-14T06:38:42.715Z,25.80
2019-04-14T06:41:18.026Z,27.47
2019-04-14T06:43:51.667Z,26.53
2019-04-14T06:46:25.257Z,26.03
2019-04-14T06:48:58.912Z,26.37
2019-04-14T06:51:32.623Z,25.90
2019-04-14T06:54:06.348Z,27.70
2019-04-14T06:56:39.982Z,24.37
2019-04-14T06:59:13.717Z,25.83
2019-04-14T07:01:47.375Z,26.50
2019-04-14T07:04:21.078Z,24.80
2019-04-14T07:06:54.745Z,25.83
2019-04-14T07:09:28.380Z,26.80
2019-04-14T07:12:02.207Z,25.10
2019-04-14T07:14:35.864Z,25.93
2019-04-14T07:17:09.602Z,22.73
2019-04-14T07:19:43.307Z,23.80
2019-04-14T07:22:19.971Z,23.53
2019-04-14T07:24:53.667Z,23.03
2019-04-14T07:27:27.342Z,22.43
2019-04-14T07:30:02.654Z,26.70
2019-04-14T07:32:38.019Z,22.97
2019-04-14T07:35:19.200Z,24.03
2019-04-14T07:38:00.625Z,23.07
2019-04-14T07:40:51.225Z,20.87
2019-04-14T07:43:32.397Z,23.47
2019-04-14T07:46:07.683Z,23.23
2019-04-14T07:48:45.757Z,21.53
2019-04-14T07:51:37.248Z,24.37
2019-04-14T07:54:12.612Z,22.90
2019-04-14T07:57:02.920Z,21.27
2019-04-14T07:59:38.293Z,21.97
2019-04-14T08:02:13.657Z,23.27
2019-04-14T08:04:48.947Z,21.87
2019-04-14T08:07:23.064Z,22.67
2019-04-14T08:09:56.784Z,22.47
2019-04-14T08:12:30.464Z,24.03
2019-04-14T08:15:06.294Z,22.87
2019-04-14T08:17:40.037Z,21.43
2019-04-14T08:20:26.488Z,23.37
2019-04-14T08:22:49.161Z,22.73
2019-04-14T08:25:22.787Z,23.10
2019-04-14T08:27:56.462Z,21.80
2019-04-14T08:30:30.157Z,23.57
2019-04-14T08:33:03.803Z,22.60
2019-04-14T08:35:37.429Z,24.20
2019-04-14T08:38:11.021Z,24.23
2019-04-14T08:40:44.722Z,21.97
2019-04-14T08:43:29.220Z,22.93
2019-04-14T08:46:21.065Z,22.80
2019-04-14T08:48:56.308Z,22.70
2019-04-14T08:51:37.738Z,23.07
2019-04-14T08:54:15.855Z,21.80
2019-04-14T08:56:51.194Z,22.87
2019-04-14T08:59:26.506Z,23.20
2019-04-14T09:02:18.313Z,22.87
2019-04-14T09:05:12.112Z,22.77
2019-04-14T09:07:50.223Z,22.23
2019-04-14T09:10:28.022Z,22.10
2019-04-14T09:13:01.853Z,24.70
2019-04-14T09:15:35.634Z,24.03
2019-04-14T09:18:09.441Z,22.80
2019-04-14T09:20:52.191Z,22.60
2019-04-14T09:23:18.866Z,23.13
2019-04-14T09:25:52.559Z,22.80
2019-04-14T09:28:26.293Z,21.77
2019-04-14T09:31:00.059Z,21.77
2019-04-14T09:33:33.793Z,23.17
2019-04-14T09:36:07.415Z,23.83
2019-04-14T09:38:41.076Z,22.83
2019-04-14T09:41:14.777Z,22.30
2019-04-14T09:43:48.541Z,22.57
2019-04-14T09:46:22.241Z,24.53
2019-04-14T09:48:55.961Z,23.93
2019-04-14T09:51:29.659Z,21.93
2019-04-14T09:54:03.468Z,22.97
2019-04-14T09:56:37.028Z,22.43
2019-04-14T09:59:10.706Z,21.43
2019-04-14T10:01:44.416Z,25.00
2019-04-14T10:04:18.148Z,23.70
2019-04-14T10:06:52.219Z,26.43
2019-04-14T10:09:26.119Z,23.23
2019-04-14T10:11:59.814Z,24.07
2019-04-14T10:14:33.560Z,24.73
2019-04-14T10:17:07.310Z,22.50
2019-04-14T10:19:40.986Z,26.17
2019-04-14T10:22:14.694Z,22.90
2019-04-14T10:24:48.422Z,24.27
2019-04-14T10:27:22.054Z,25.50
2019-04-14T10:29:55.718Z,23.70
2019-04-14T10:32:29.426Z,23.53
2019-04-14T10:35:03.167Z,24.07
2019-04-14T10:37:36.865Z,24.53
2019-04-14T10:40:10.948Z,24.97
2019-04-14T10:42:44.677Z,23.97
2019-04-14T10:45:18.643Z,24.97
2019-04-14T10:47:52.439Z,23.13
2019-04-14T10:50:30.946Z,24.57
2019-04-14T10:53:01.400Z,23.60
2019-04-14T10:55:35.126Z,23.60
2019-04-14T10:58:08.839Z,23.60
2019-04-14T11:00:42.502Z,23.67
2019-04-14T11:03:16.200Z,24.97
2019-04-14T11:05:57.009Z,26.23
2019-04-14T11:08:30.672Z,24.27
2019-04-14T11:11:04.296Z,21.47
2019-04-14T11:13:38.028Z,23.23
2019-04-14T11:16:11.663Z,24.13
2019-04-14T11:18:45.318Z,24.77
2019-04-14T11:21:18.949Z,23.27
2019-04-14T11:23:52.687Z,23.90
2019-04-14T11:26:26.476Z,24.27
2019-04-14T11:29:00.135Z,27.97
2019-04-14T11:31:51.915Z,26.20
2019-04-14T11:34:27.214Z,24.67
2019-04-14T11:37:14.423Z,23.57
2019-04-14T11:39:48.003Z,24.97
2019-04-14T11:42:21.641Z,26.80
2019-04-14T11:44:55.367Z,24.30
2019-04-14T11:47:29.072Z,23.57
2019-04-14T11:50:02.891Z,25.27
2019-04-14T11:52:36.578Z,27.73
2019-04-14T11:55:10.449Z,26.03
2019-04-14T11:57:44.148Z,25.57
2019-04-14T12:00:37.887Z,26.87
2019-04-14T12:03:32.197Z,27.43
2019-04-14T12:06:25.125Z,23.63
2019-04-14T12:09:00.484Z,25.23
2019-04-14T12:11:34.068Z,29.00
2019-04-14T12:14:07.796Z,26.23
2019-04-14T12:16:41.916Z,25.37
2019-04-14T12:19:15.648Z,24.93
2019-04-14T12:21:49.346Z,27.17
2019-04-14T12:24:23.067Z,24.43
2019-04-14T12:26:56.700Z,25.87
2019-04-14T12:29:30.570Z,26.47
2019-04-14T12:32:06.365Z,28.37
2019-04-14T12:34:40.071Z,24.77
2019-04-14T12:37:13.733Z,29.60
2019-04-14T12:39:47.737Z,26.10
2019-04-14T12:42:32.143Z,28.07
2019-04-14T12:45:20.415Z,27.90
2019-04-14T12:47:58.508Z,24.27
2019-04-14T12:50:33.905Z,27.87
2019-04-14T12:53:07.599Z,25.57
2019-04-14T12:55:41.399Z,23.30
2019-04-14T12:58:16.775Z,28.57
2019-04-14T13:00:52.274Z,26.07
2019-04-14T13:03:26.131Z,26.40
2019-04-14T13:05:59.793Z,25.17
2019-04-14T13:08:33.413Z,24.93
2019-04-14T13:11:07.315Z,26.00
2019-04-14T13:13:41.020Z,24.13
2019-04-14T13:16:14.758Z,26.27
2019-04-14T13:18:48.454Z,28.13
2019-04-14T13:21:22.065Z,32.50
2019-04-14T13:23:56.676Z,27.67
2019-04-14T13:26:30.357Z,29.13
2019-04-14T13:29:04.152Z,24.83
2019-04-14T13:31:37.837Z,25.90
2019-04-14T13:34:11.424Z,29.00
2019-04-14T13:36:45.228Z,29.00
2019-04-14T13:39:18.949Z,29.30
2019-04-14T13:41:52.650Z,27.23
2019-04-14T13:44:26.383Z,26.03
2019-04-14T13:47:00.009Z,29.73
2019-04-14T13:49:33.591Z,24.57
2019-04-14T13:52:07.217Z,24.23
2019-04-14T13:54:40.884Z,25.43
2019-04-14T13:57:14.569Z,26.00
2019-04-14T13:59:48.201Z,24.83
2019-04-14T14:02:21.941Z,27.10
2019-04-14T14:04:55.568Z,22.57
2019-04-14T14:07:29.223Z,22.33
2019-04-14T14:10:03.152Z,23.33
2019-04-14T14:12:38.456Z,23.60
2019-04-14T14:15:30.313Z,20.33
2019-04-14T14:18:05.660Z,21.97
2019-04-14T14:20:47.147Z,19.20
2019-04-14T14:23:27.681Z,17.23
2019-04-14T14:26:10.719Z,16.57
2019-04-14T14:28:44.286Z,16.07
2019-04-14T14:31:19.003Z,20.17
2019-04-14T14:33:52.588Z,17.33
2019-04-14T14:36:26.245Z,19.83
2019-04-14T14:38:59.867Z,17.80
2019-04-14T14:41:33.609Z,18.10
2019-04-14T14:44:07.307Z,17.53
2019-04-14T14:46:42.688Z,15.90
2019-04-14T14:49:18.039Z,15.77
2019-04-14T14:51:53.450Z,13.70
2019-04-14T14:54:27.454Z,12.60
2019-04-14T14:57:01.253Z,14.27
2019-04-14T14:59:34.871Z,14.60
2019-04-14T15:02:08.614Z,13.43
2019-04-14T15:04:42.319Z,13.50
2019-04-14T15:07:15.967Z,13.10
2019-04-14T15:09:49.603Z,13.40
2019-04-14T15:12:23.275Z,12.67
2019-04-14T15:14:56.899Z,12.57
2019-04-14T15:17:30.646Z,12.13
2019-04-14T15:20:05.680Z,12.17
2019-04-14T15:22:39.407Z,12.63
2019-04-14T15:25:13.820Z,11.90
2019-04-14T15:27:47.404Z,12.90
2019-04-14T15:30:22.315Z,12.23
2019-04-14T15:32:55.913Z,11.97
2019-04-14T15:35:29.614Z,11.10
2019-04-14T15:38:03.357Z,13.17
2019-04-14T15:40:36.985Z,12.33
2019-04-14T15:43:10.715Z,12.33
2019-04-14T15:45:44.351Z,12.37
2019-04-14T15:48:18.101Z,12.70
2019-04-14T15:50:51.802Z,11.60
2019-04-14T15:53:37.338Z,13.73
2019-04-14T15:56:00.903Z,15.00
2019-04-14T15:58:36.212Z,14.70
2019-04-14T16:01:14.229Z,12.97
2019-04-14T16:04:04.748Z,12.37
2019-04-14T16:06:42.744Z,13.10
2019-04-14T16:09:24.059Z,11.97
2019-04-14T16:12:08.466Z,11.17
2019-04-14T16:14:46.235Z,11.70
2019-04-14T16:17:33.659Z,11.13
2019-04-14T16:20:09.036Z,12.40
2019-04-14T16:22:42.779Z,11.90
2019-04-14T16:25:16.409Z,12.83
2019-04-14T16:27:57.759Z,13.70
2019-04-14T16:30:48.323Z,11.83
2019-04-14T16:33:32.389Z,10.10
2019-04-14T16:36:06.120Z,11.13
2019-04-14T16:38:39.745Z,11.20
2019-04-14T16:41:13.467Z,10.17
2019-04-14T16:44:39.058Z,10.23
2019-04-14T16:46:48.282Z,10.13
2019-04-14T16:51:17.653Z,11.23
2019-04-14T16:52:17.848Z,11.87
2019-04-14T16:55:08.672Z,12.70
2019-04-14T16:57:50.084Z,10.47
2019-04-14T17:00:25.424Z,11.33
2019-04-14T17:02:59.090Z,10.30
2019-04-14T17:05:32.749Z,9.43
2019-04-14T17:08:06.412Z,10.77
2019-04-14T17:10:40.141Z,10.77
2019-04-14T17:13:14.230Z,11.37
2019-04-14T17:15:49.789Z,12.03
2019-04-14T17:18:25.263Z,10.63
2019-04-14T17:21:02.931Z,11.80
2019-04-14T17:23:38.303Z,11.77
2019-04-14T17:26:16.322Z,12.20
2019-04-14T17:29:00.308Z,11.23
2019-04-14T17:31:50.672Z,10.33
2019-04-14T17:34:35.178Z,11.10
2019-04-14T17:37:10.545Z,9.73
2019-04-14T17:39:45.894Z,11.30
2019-04-14T17:42:30.298Z,11.60
2019-04-14T17:45:09.790Z,12.87
2019-04-14T17:47:57.412Z,12.37
2019-04-14T17:50:42.005Z,13.90
2019-04-14T17:53:17.301Z,15.93
2019-04-14T17:55:55.039Z,17.20
2019-04-14T17:58:39.447Z,13.57
2019-04-14T18:01:31.016Z,17.33
2019-04-14T18:04:06.392Z,15.07
2019-04-14T18:06:47.639Z,17.83
2019-04-14T18:09:34.984Z,16.97
2019-04-14T18:12:12.920Z,18.33
2019-04-14T18:14:48.298Z,17.77
2019-04-14T18:17:35.681Z,18.23
2019-04-14T18:20:11.062Z,19.87
2019-04-14T18:22:44.655Z,18.97
2019-04-14T18:25:19.093Z,19.63
2019-04-14T18:28:12.276Z,19.83
2019-04-14T18:30:47.592Z,19.97
2019-04-14T18:33:28.876Z,23.43
2019-04-14T18:36:06.608Z,22.23
2019-04-14T18:38:47.975Z,21.17
2019-04-14T18:41:26.241Z,24.10
2019-04-14T18:44:04.101Z,23.13
2019-04-14T18:46:56.043Z,25.47
2019-04-14T18:49:46.142Z,25.00
2019-04-14T18:52:21.457Z,26.37
2019-04-14T18:54:59.703Z,32.87
2019-04-14T18:57:43.947Z,29.23
2019-04-14T19:00:37.632Z,31.20
2019-04-14T19:03:11.271Z,27.10
2019-04-14T19:05:45.015Z,29.60
2019-04-14T19:08:18.720Z,30.13
2019-04-14T19:11:09.851Z,33.57
2019-04-14T19:13:45.212Z,31.43
2019-04-14T19:16:38.167Z,30.90
2019-04-14T19:19:05.142Z,30.97
2019-04-14T19:21:38.838Z,30.20
2019-04-14T19:24:12.399Z,31.87
2019-04-14T19:26:45.990Z,29.60
2019-04-14T19:29:19.984Z,28.13
2019-04-14T19:31:53.711Z,28.03
2019-04-14T19:34:27.382Z,26.53
2019-04-14T19:37:01.192Z,32.00
2019-04-14T19:39:34.856Z,31.37
2019-04-14T19:42:08.551Z,32.30
2019-04-14T19:44:42.218Z,29.40
2019-04-14T19:47:15.848Z,29.03
2019-04-14T19:49:49.596Z,32.20
2019-04-14T19:52:25.201Z,31.33
2019-04-14T19:54:58.868Z,31.00
2019-04-14T19:57:32.592Z,28.53
2019-04-14T20:00:07.199Z,32.20
2019-04-14T20:02:40.852Z,36.23
2019-04-14T20:05:14.519Z,31.67
2019-04-14T20:07:48.087Z,34.53
2019-04-14T20:10:21.818Z,35.03
2019-04-14T20:12:55.443Z,34.70
2019-04-14T20:15:33.507Z,35.33
2019-04-14T20:18:08.846Z,36.30
2019-04-14T20:20:55.944Z,39.23
2019-04-14T20:23:32.696Z,40.30
2019-04-14T20:26:17.238Z,41.07
2019-04-14T20:28:55.813Z,39.27
2019-04-14T20:31:34.248Z,42.07
2019-04-14T20:34:08.521Z,43.17
2019-04-14T20:36:42.307Z,40.27
2019-04-14T20:39:16.548Z,41.13
2019-04-14T20:41:50.319Z,42.47
2019-04-14T20:44:24.001Z,47.30
2019-04-14T20:46:57.805Z,43.27
2019-04-14T20:49:31.475Z,47.03
2019-04-14T20:52:05.109Z,42.20
2019-04-14T20:54:38.845Z,44.50
2019-04-14T20:57:12.500Z,43.00
2019-04-14T20:59:46.121Z,46.47
2019-04-14T21:02:30.535Z,46.97
2019-04-14T21:05:23.598Z,48.77
2019-04-14T21:08:15.676Z,48.67
2019-04-14T21:10:53.955Z,46.37
2019-04-14T21:13:29.340Z,45.77
2019-04-14T21:16:12.844Z,43.03
2019-04-14T21:18:50.476Z,49.30
2019-04-14T21:21:28.551Z,48.00
2019-04-14T21:24:09.383Z,48.90
2019-04-14T21:26:47.814Z,51.73
2019-04-14T21:29:38.429Z,51.83
2019-04-14T21:32:19.801Z,50.47
2019-04-14T21:35:10.965Z,55.67
2019-04-14T21:37:52.387Z,52.63
2019-04-14T21:40:27.743Z,57.10
2019-04-14T21:43:01.492Z,54.57
2019-04-14T21:45:35.183Z,55.50
2019-04-14T21:48:08.843Z,58.43
2019-04-14T21:50:42.611Z,61.83
2019-04-14T21:53:16.348Z,53.63
2019-04-14T21:55:50.112Z,56.30
2019-04-14T21:58:28.456Z,61.97
2019-04-14T22:01:35.337Z,57.90
2019-04-14T22:04:16.916Z,58.23
2019-04-14T22:06:55.350Z,60.63
2019-04-14T22:09:30.732Z,57.90
2019-04-14T22:12:06.400Z,61.10
2019-04-14T22:14:40.129Z,56.27
2019-04-14T22:17:13.916Z,57.47
2019-04-14T22:19:47.662Z,51.60
2019-04-14T22:22:21.363Z,51.73
2019-04-14T22:24:55.120Z,55.50
2019-04-14T22:27:28.881Z,60.10
2019-04-14T22:30:02.624Z,61.17
2019-04-14T22:32:36.362Z,57.20
2019-04-14T22:35:10.073Z,52.73
2019-04-14T22:37:43.818Z,52.67
2019-04-14T22:40:17.547Z,51.33
2019-04-14T22:42:51.243Z,51.83
2019-04-14T22:45:24.901Z,51.97
2019-04-14T22:47:58.608Z,49.03
2019-04-14T22:50:32.412Z,49.33
2019-04-14T22:53:06.176Z,48.67
2019-04-14T22:55:39.862Z,48.67
2019-04-14T22:58:13.647Z,51.73
2019-04-14T23:00:51.840Z,45.70
2019-04-14T23:03:43.785Z,47.83
2019-04-14T23:06:19.123Z,48.10
2019-04-14T23:09:00.272Z,47.87
2019-04-14T23:11:44.572Z,49.93
2019-04-14T23:14:35.023Z,51.00
2019-04-14T23:17:13.403Z,49.57
2019-04-14T23:19:57.508Z,48.03
2019-04-14T23:22:32.854Z,47.87
2019-04-14T23:25:06.712Z,46.73
2019-04-14T23:27:40.488Z,44.93
2019-04-14T23:30:14.395Z,47.03
2019-04-14T23:32:48.171Z,44.63
2019-04-14T23:35:21.903Z,45.53
2019-04-14T23:37:55.617Z,47.53
2019-04-14T23:40:29.339Z,45.57
2019-04-14T23:43:02.976Z,43.63
2019-04-14T23:45:36.707Z,42.00
2019-04-14T23:48:10.438Z,41.33
2019-04-14T23:50:44.139Z,41.83
2019-04-14T23:53:17.876Z,45.63
2019-04-14T23:55:52.047Z,41.47
2019-04-14T23:58:25.717Z,42.77
